Time;durP1;ratioP1;P1;durP2;ratioP2;P2;SDS_P1;SDS_P2;PMS_P1;PMS_P2;Temp;Humidity;BMP_temperature;BMP_pressure;BME280_temperature;BME280_humidity;BME280_pressure;Samples;Min_cycle;Max_cycle;Signal;HPM_P1;HPM_P2
2024/01/22 00:02:13;;;;;;;398.67;370.50;;;6.00;99.90;;;;;;4954895;28;20504;-76
2024/01/22 00:04:39;;;;;;;559.03;511.63;;;6.00;99.90;;;;;;4930595;29;20051;-76
2024/01/22 00:07:04;;;;;;;402.60;373.00;;;6.10;99.90;;;;;;4937651;28;20039;-76
2024/01/22 00:09:30;;;;;;;454.67;419.17;;;6.10;99.90;;;;;;4957196;28;20396;-76
2024/01/22 00:11:56;;;;;;;475.65;439.13;;;6.10;99.90;;;;;;4931091;29;20043;-76
2024/01/22 00:14:22;;;;;;;514.00;475.23;;;6.10;99.90;;;;;;4949327;28;20043;-76
2024/01/22 00:16:48;;;;;;;576.37;527.17;;;6.10;99.90;;;;;;4931065;29;20043;-76
2024/01/22 00:19:13;;;;;;;443.60;412.40;;;6.10;99.90;;;;;;4931261;28;20075;-76
2024/01/22 00:21:43;;;;;;;469.93;436.20;;;6.10;99.90;;;;;;4948266;28;20046;-77
2024/01/22 00:24:09;;;;;;;350.73;327.27;;;6.10;99.90;;;;;;4949380;28;20145;-76
2024/01/22 00:26:35;;;;;;;395.55;367.45;;;6.20;99.90;;;;;;4930738;29;20072;-76
2024/01/22 00:29:01;;;;;;;485.90;446.00;;;6.20;99.90;;;;;;4937682;29;20145;-75
2024/01/22 00:31:26;;;;;;;449.17;416.60;;;6.20;99.90;;;;;;4945260;28;20369;-75
2024/01/22 00:33:52;;;;;;;409.60;381.93;;;6.30;99.90;;;;;;4948966;28;20043;-74
2024/01/22 00:36:18;;;;;;;434.77;404.53;;;6.30;99.90;;;;;;4931806;29;20102;-73
2024/01/22 00:38:43;;;;;;;502.00;463.67;;;6.40;99.90;;;;;;4934531;29;20078;-76
2024/01/22 00:41:09;;;;;;;425.17;395.43;;;6.40;99.90;;;;;;4939746;28;20073;-76
2024/01/22 00:43:38;;;;;;;519.53;480.27;;;6.50;99.90;;;;;;4930914;29;20047;-76
2024/01/22 00:46:04;;;;;;;580.97;530.13;;;6.60;99.90;;;;;;4932917;28;20039;-76
2024/01/22 00:48:30;;;;;;;444.33;412.33;;;6.70;99.90;;;;;;4934193;28;20485;-76
2024/01/22 00:50:55;;;;;;;391.77;364.60;;;6.80;99.90;;;;;;4941831;28;20429;-76
2024/01/22 00:53:21;;;;;;;546.23;500.50;;;6.80;99.90;;;;;;4952610;28;20043;-76
2024/01/22 00:55:47;;;;;;;400.63;373.47;;;6.90;99.90;;;;;;4944849;28;21237;-75
2024/01/22 00:58:13;;;;;;;579.70;531.73;;;6.90;99.90;;;;;;4946033;28;20142;-75
2024/01/22 01:00:38;;;;;;;660.23;600.60;;;6.90;99.90;;;;;;4947580;28;20043;-75
2024/01/22 01:03:04;;;;;;;309.63;289.47;;;6.90;99.90;;;;;;4930180;28;20060;-74
2024/01/22 01:05:30;;;;;;;435.70;404.57;;;7.00;99.90;;;;;;4946153;28;20126;-74
2024/01/22 01:07:55;;;;;;;594.70;544.57;;;6.90;99.90;;;;;;4935164;28;20047;-74
2024/01/22 01:10:21;;;;;;;419.03;390.20;;;6.90;99.90;;;;;;4955867;28;20051;-74
2024/01/22 01:12:47;;;;;;;622.50;560.83;;;6.90;99.90;;;;;;4952482;28;20412;-74
2024/01/22 01:15:13;;;;;;;318.90;298.23;;;6.90;99.90;;;;;;4942902;28;20046;-74
2024/01/22 01:17:38;;;;;;;555.43;493.03;;;6.90;99.90;;;;;;4944343;28;20039;-75
2024/01/22 01:20:05;;;;;;;407.37;372.60;;;6.90;99.90;;;;;;4936397;28;20040;-74
2024/01/22 01:22:33;;;;;;;496.88;457.42;;;7.00;99.90;;;;;;4944017;28;20055;-74
2024/01/22 01:24:59;;;;;;;415.55;385.55;;;7.00;99.90;;;;;;4942874;28;20040;-75
2024/01/22 01:27:25;;;;;;;498.05;460.38;;;7.00;99.90;;;;;;4933717;29;20080;-75
2024/01/22 01:29:52;;;;;;;608.83;553.60;;;7.10;99.90;;;;;;4946724;28;20078;-76
2024/01/22 01:32:18;;;;;;;518.35;476.63;;;7.10;99.90;;;;;;4942367;29;20044;-74
2024/01/22 01:34:44;;;;;;;477.07;438.43;;;7.10;99.90;;;;;;4948010;28;20071;-75
2024/01/22 01:37:10;;;;;;;516.03;475.47;;;7.20;99.90;;;;;;4947296;28;20047;-75
2024/01/22 01:39:35;;;;;;;351.53;327.57;;;7.20;99.90;;;;;;4950609;28;20066;-76
2024/01/22 01:42:01;;;;;;;659.17;591.57;;;7.30;99.90;;;;;;4955820;28;20040;-75
2024/01/22 01:44:39;;;;;;;564.90;518.30;;;7.30;99.90;;;;;;4953188;28;20071;-75
2024/01/22 01:47:05;;;;;;;547.78;496.48;;;7.30;99.90;;;;;;4948272;28;20043;-75
2024/01/22 01:49:31;;;;;;;523.85;481.88;;;7.40;99.90;;;;;;4946406;28;20054;-75
2024/01/22 01:51:57;;;;;;;500.83;455.53;;;7.40;99.90;;;;;;4944462;28;20035;-75
2024/01/22 01:54:24;;;;;;;571.73;523.30;;;7.50;99.90;;;;;;4956890;28;20070;-74
2024/01/22 01:56:51;;;;;;;499.83;461.88;;;7.40;99.90;;;;;;4939308;28;20757;-75
2024/01/22 01:59:18;;;;;;;515.08;475.23;;;7.50;99.90;;;;;;4930500;29;20055;-73
2024/01/22 02:01:44;;;;;;;561.28;515.95;;;7.40;99.90;;;;;;4939815;28;20097;-74
2024/01/22 02:04:10;;;;;;;593.37;546.90;;;7.50;99.90;;;;;;4956239;28;20055;-75
2024/01/22 02:06:35;;;;;;;435.33;402.93;;;7.50;99.90;;;;;;4953955;28;20043;-74
2024/01/22 02:09:01;;;;;;;457.87;416.17;;;7.60;99.90;;;;;;4937450;29;20111;-75
2024/01/22 02:11:27;;;;;;;551.90;506.73;;;7.60;99.90;;;;;;4945563;29;20047;-75
2024/01/22 02:13:55;;;;;;;623.60;534.40;;;7.70;99.90;;;;;;4938562;28;20043;-75
2024/01/22 02:16:21;;;;;;;675.83;607.45;;;7.70;99.90;;;;;;4954454;28;20126;-75
2024/01/22 02:18:47;;;;;;;557.83;509.57;;;7.80;99.90;;;;;;4950691;28;20131;-75
2024/01/22 02:21:14;;;;;;;586.20;535.78;;;7.70;99.90;;;;;;4939692;28;20421;-76
2024/01/22 02:23:40;;;;;;;848.80;682.28;;;7.70;99.90;;;;;;4952905;28;20047;-75
2024/01/22 02:26:05;;;;;;;706.47;635.72;;;7.70;99.90;;;;;;4930717;28;20176;-74
2024/01/22 02:28:32;;;;;;;427.43;395.03;;;7.70;99.90;;;;;;4949904;29;20571;-75
2024/01/22 02:30:58;;;;;;;538.75;493.38;;;7.80;99.90;;;;;;4954663;28;20039;-75
2024/01/22 02:33:24;;;;;;;455.33;414.70;;;7.80;99.90;;;;;;4933839;29;20471;-75
2024/01/22 02:35:50;;;;;;;319.73;298.58;;;7.80;99.90;;;;;;4938556;29;20039;-75
2024/01/22 02:38:16;;;;;;;601.73;547.93;;;7.80;99.90;;;;;;4951061;28;20496;-75
2024/01/22 02:40:41;;;;;;;611.00;555.17;;;7.90;99.90;;;;;;4931477;28;20047;-76
2024/01/22 02:43:07;;;;;;;444.80;410.80;;;7.90;99.90;;;;;;4946576;28;20031;-76
2024/01/22 02:45:33;;;;;;;483.57;444.67;;;7.80;99.90;;;;;;4933752;29;20043;-76
2024/01/22 02:47:59;;;;;;;536.43;490.67;;;7.90;99.90;;;;;;4953359;28;20067;-76
2024/01/22 02:50:24;;;;;;;443.03;408.23;;;7.80;99.90;;;;;;4960471;28;20520;-77
2024/01/22 02:52:50;;;;;;;674.13;601.10;;;7.80;99.90;;;;;;4936551;29;20058;-76
2024/01/22 02:55:16;;;;;;;482.70;438.00;;;7.80;99.90;;;;;;4938880;28;20397;-76
2024/01/22 02:57:42;;;;;;;427.27;395.63;;;7.80;99.90;;;;;;4945885;28;20043;-77
2024/01/22 03:00:08;;;;;;;377.53;351.87;;;7.80;99.90;;;;;;4941570;29;20791;-76
2024/01/22 03:02:34;;;;;;;641.88;576.90;;;7.80;99.90;;;;;;4941498;28;20081;-75
2024/01/22 03:04:59;;;;;;;507.43;466.50;;;7.80;99.90;;;;;;4951733;28;20081;-75
2024/01/22 03:07:25;;;;;;;574.40;525.80;;;7.80;99.90;;;;;;4937307;29;20437;-75
2024/01/22 03:09:51;;;;;;;600.27;551.23;;;7.80;99.90;;;;;;4956871;28;20050;-76
2024/01/22 03:12:16;;;;;;;495.03;459.00;;;7.80;99.90;;;;;;4948805;28;20047;-75
2024/01/22 03:14:42;;;;;;;552.37;507.67;;;7.80;99.90;;;;;;4927447;28;20043;-76
2024/01/22 03:17:09;;;;;;;501.40;459.57;;;7.80;99.90;;;;;;4961444;28;20042;-76
2024/01/22 03:19:36;;;;;;;643.17;584.85;;;7.90;99.90;;;;;;4949057;28;20077;-76
2024/01/22 03:22:02;;;;;;;539.90;499.23;;;7.90;99.90;;;;;;4938187;29;20086;-76
2024/01/22 03:24:28;;;;;;;556.00;509.75;;;7.90;99.90;;;;;;4933455;28;20050;-76
2024/01/22 03:26:54;;;;;;;499.40;461.17;;;7.90;99.90;;;;;;4948740;28;20429;-77
2024/01/22 03:29:19;;;;;;;493.53;449.30;;;7.90;99.90;;;;;;4947133;28;20054;-76
2024/01/22 03:31:45;;;;;;;676.83;614.67;;;7.90;99.90;;;;;;4950988;28;20039;-76
2024/01/22 03:34:11;;;;;;;540.20;489.07;;;7.90;99.90;;;;;;4939164;28;20070;-76
2024/01/22 03:36:37;;;;;;;418.53;387.10;;;8.00;99.90;;;;;;4950459;28;20042;-76
2024/01/22 03:39:03;;;;;;;785.05;613.38;;;8.00;99.90;;;;;;4952739;28;20048;-77
2024/01/22 03:41:29;;;;;;;519.50;478.13;;;8.00;99.90;;;;;;4944174;28;20036;-77
2024/01/22 03:43:55;;;;;;;618.42;564.60;;;8.00;99.90;;;;;;4929298;29;20042;-76
2024/01/22 03:46:21;;;;;;;655.77;588.67;;;8.10;99.90;;;;;;4933408;29;20139;-76
2024/01/22 03:48:46;;;;;;;645.37;588.80;;;8.10;99.90;;;;;;4946704;28;20398;-77
2024/01/22 03:51:12;;;;;;;696.60;618.63;;;8.10;99.90;;;;;;4926899;29;20078;-76
2024/01/22 03:53:38;;;;;;;556.40;510.40;;;8.10;99.90;;;;;;4949487;28;20046;-76
2024/01/22 03:56:05;;;;;;;467.23;430.00;;;8.00;99.90;;;;;;4945656;28;20040;-77
2024/01/22 03:58:32;;;;;;;432.73;397.73;;;8.00;99.90;;;;;;4936192;29;20043;-76
2024/01/22 04:00:59;;;;;;;473.05;435.08;;;8.00;99.90;;;;;;4929303;29;20069;-76
2024/01/22 04:03:25;;;;;;;692.83;622.92;;;7.90;99.90;;;;;;4927169;28;20055;-76
2024/01/22 04:05:51;;;;;;;413.53;383.60;;;7.90;99.90;;;;;;4934585;29;20051;-78
2024/01/22 04:08:16;;;;;;;593.63;542.20;;;7.90;99.90;;;;;;4954580;28;20031;-78
2024/01/22 04:10:42;;;;;;;509.80;471.30;;;7.90;99.90;;;;;;4924245;29;20043;-76
2024/01/22 04:13:08;;;;;;;434.95;402.88;;;7.90;99.90;;;;;;4928004;29;20542;-77
2024/01/22 04:15:34;;;;;;;586.33;531.07;;;7.90;99.90;;;;;;4949315;28;20118;-77
2024/01/22 04:18:00;;;;;;;507.00;466.63;;;7.90;99.90;;;;;;4945924;28;20048;-78
2024/01/22 04:20:26;;;;;;;475.80;438.37;;;7.90;99.90;;;;;;4948769;28;20065;-77
2024/01/22 04:22:52;;;;;;;634.37;576.93;;;7.90;99.90;;;;;;4942218;28;20354;-77
2024/01/22 04:25:18;;;;;;;468.02;431.85;;;7.90;99.90;;;;;;4942817;28;20261;-77
2024/01/22 04:27:44;;;;;;;521.72;479.02;;;7.90;99.90;;;;;;4942204;28;20496;-77
2024/01/22 04:30:10;;;;;;;517.03;477.73;;;7.90;99.90;;;;;;4934788;29;20050;-76
2024/01/22 04:32:36;;;;;;;447.73;415.05;;;7.90;99.90;;;;;;4935644;29;20047;-76
2024/01/22 04:35:04;;;;;;;574.57;526.23;;;7.90;99.90;;;;;;4922924;28;20046;-77
2024/01/22 04:37:30;;;;;;;617.78;559.90;;;7.90;99.90;;;;;;4954132;28;20058;-76
2024/01/22 04:40:07;;;;;;;471.53;430.13;;;7.90;99.90;;;;;;4933638;29;20035;-76
2024/01/22 04:42:32;;;;;;;486.25;448.40;;;7.90;99.90;;;;;;4943511;28;20401;-77
2024/01/22 04:44:59;;;;;;;576.73;523.10;;;7.90;99.90;;;;;;4941904;28;20035;-76
2024/01/22 04:47:25;;;;;;;470.60;433.45;;;7.90;99.90;;;;;;4941493;28;20051;-77
2024/01/22 04:49:51;;;;;;;524.20;481.03;;;7.80;99.90;;;;;;4934862;29;20039;-77
2024/01/22 04:52:16;;;;;;;479.80;441.97;;;7.80;99.90;;;;;;4955533;28;20039;-76
2024/01/22 04:54:42;;;;;;;534.47;490.63;;;7.80;99.90;;;;;;4923367;29;20374;-77
2024/01/22 04:57:08;;;;;;;407.57;378.63;;;7.80;99.90;;;;;;4934958;28;20051;-77
2024/01/22 04:59:33;;;;;;;500.80;460.40;;;7.80;99.90;;;;;;4936957;28;20485;-77
2024/01/22 05:02:02;;;;;;;549.38;502.83;;;7.80;99.90;;;;;;4931307;29;20125;-77
2024/01/22 05:04:27;;;;;;;458.80;421.57;;;7.80;99.90;;;;;;4940227;28;20620;-77
2024/01/22 05:06:53;;;;;;;662.20;603.10;;;7.90;99.90;;;;;;4956515;28;20043;-76
2024/01/22 05:09:19;;;;;;;478.60;441.80;;;7.90;99.90;;;;;;4956535;28;20386;-78
2024/01/22 05:11:44;;;;;;;434.83;403.10;;;7.90;99.90;;;;;;4933392;28;20464;-75
2024/01/22 05:14:10;;;;;;;606.20;550.30;;;7.90;99.90;;;;;;4940406;28;20039;-75
2024/01/22 05:16:37;;;;;;;589.40;538.33;;;8.00;99.90;;;;;;4956815;28;20043;-76
2024/01/22 05:19:03;;;;;;;456.13;422.25;;;8.00;99.90;;;;;;4935996;29;20087;-75
2024/01/22 05:21:29;;;;;;;498.87;460.10;;;8.00;99.90;;;;;;4940076;29;20103;-76
2024/01/22 05:23:54;;;;;;;467.20;432.23;;;8.00;99.90;;;;;;4949538;28;20409;-76
2024/01/22 05:26:20;;;;;;;549.70;504.70;;;8.00;99.90;;;;;;4938309;29;20039;-76
2024/01/22 05:28:46;;;;;;;500.03;459.33;;;8.00;99.90;;;;;;4938919;28;20126;-76
2024/01/22 05:31:12;;;;;;;452.67;419.93;;;8.00;99.90;;;;;;4961081;28;20049;-76
2024/01/22 05:33:37;;;;;;;720.17;639.00;;;8.00;99.90;;;;;;4939683;28;20297;-76
2024/01/22 05:36:03;;;;;;;563.20;514.40;;;8.00;99.90;;;;;;4955359;28;20111;-76
2024/01/22 05:38:29;;;;;;;579.13;528.40;;;8.10;99.90;;;;;;4931771;29;20043;-76
2024/01/22 05:40:55;;;;;;;557.80;510.70;;;8.10;99.90;;;;;;4929956;29;20501;-77
2024/01/22 05:43:20;;;;;;;451.50;418.67;;;8.10;99.90;;;;;;4946143;28;20042;-75
2024/01/22 05:45:46;;;;;;;652.27;591.90;;;8.10;99.90;;;;;;4947025;28;20039;-75
2024/01/22 05:48:12;;;;;;;644.67;586.13;;;8.10;99.90;;;;;;4946369;28;20043;-76
2024/01/22 05:50:38;;;;;;;477.90;442.63;;;8.10;99.90;;;;;;4956180;28;20546;-75
2024/01/22 05:53:04;;;;;;;546.13;499.70;;;8.10;99.90;;;;;;4937776;29;20063;-74
2024/01/22 05:55:29;;;;;;;627.93;569.77;;;8.10;99.90;;;;;;4955501;28;20074;-75
2024/01/22 05:57:55;;;;;;;427.63;395.33;;;8.10;99.90;;;;;;4952093;29;20039;-76
2024/01/22 06:00:21;;;;;;;496.00;457.87;;;8.10;99.90;;;;;;4933355;29;20394;-76
2024/01/22 06:02:47;;;;;;;548.53;504.17;;;8.10;99.90;;;;;;4941147;28;20294;-76
2024/01/22 06:05:13;;;;;;;610.35;559.13;;;8.20;99.90;;;;;;4955253;28;20502;-76
2024/01/22 06:07:39;;;;;;;426.43;395.03;;;8.20;99.90;;;;;;4960461;28;20039;-76
2024/01/22 06:10:06;;;;;;;376.95;351.05;;;8.30;99.90;;;;;;4960812;28;20433;-76
2024/01/22 06:12:34;;;;;;;482.87;446.23;;;8.30;99.90;;;;;;4955970;28;20074;-76
2024/01/22 06:15:00;;;;;;;644.78;583.33;;;8.20;99.90;;;;;;4956264;28;20291;-78
2024/01/22 06:17:30;;;;;;;631.38;572.97;;;8.30;99.90;;;;;;4950740;28;20035;-78
2024/01/22 06:19:59;;;;;;;1089.40;815.30;;;8.40;99.90;;;;;;4928358;29;20413;-77
2024/01/22 06:22:25;;;;;;;888.20;719.03;;;8.60;99.90;;;;;;4954105;28;20047;-76
2024/01/22 06:24:50;;;;;;;644.20;582.92;;;8.80;99.90;;;;;;4952656;28;20287;-77
2024/01/22 06:27:17;;;;;;;839.45;702.67;;;8.90;99.90;;;;;;4927434;29;20110;-77
2024/01/22 06:29:43;;;;;;;637.23;581.47;;;8.90;99.90;;;;;;4940291;28;20461;-76
2024/01/22 06:32:09;;;;;;;556.40;507.87;;;9.00;99.90;;;;;;4946241;28;20088;-76
2024/01/22 06:34:37;;;;;;;701.23;635.33;;;8.90;99.90;;;;;;4931637;29;20031;-76
2024/01/22 06:37:04;;;;;;;878.80;759.30;;;8.90;99.90;;;;;;4940117;28;20051;-77
2024/01/22 06:39:30;;;;;;;716.20;647.40;;;8.90;99.90;;;;;;4935349;29;20291;-77
2024/01/22 06:41:56;;;;;;;683.80;619.90;;;8.90;99.90;;;;;;4929981;29;20046;-77
2024/01/22 06:44:22;;;;;;;643.73;582.63;;;8.90;99.90;;;;;;4951975;28;20290;-77
2024/01/22 06:46:47;;;;;;;861.23;737.23;;;8.90;99.90;;;;;;4934811;28;20051;-77
2024/01/22 06:49:13;;;;;;;771.23;676.10;;;8.90;99.90;;;;;;4947249;28;20039;-77
2024/01/22 06:51:39;;;;;;;761.87;682.70;;;8.90;99.90;;;;;;4948496;28;20463;-77
2024/01/22 06:54:05;;;;;;;748.23;668.40;;;8.90;99.90;;;;;;4942298;28;20075;-77
2024/01/22 06:56:31;;;;;;;784.60;701.60;;;8.90;99.90;;;;;;4930736;28;20134;-78
2024/01/22 06:58:57;;;;;;;592.20;539.93;;;8.90;99.90;;;;;;4937109;28;20036;-78
2024/01/22 07:01:23;;;;;;;550.87;501.93;;;8.90;99.90;;;;;;4943083;29;20287;-78
2024/01/22 07:03:50;;;;;;;595.73;542.10;;;8.90;99.90;;;;;;4937793;28;20138;-78
2024/01/22 07:06:15;;;;;;;685.05;615.35;;;8.90;99.90;;;;;;4949850;28;20043;-77
2024/01/22 07:08:41;;;;;;;1126.50;824.57;;;8.90;99.90;;;;;;4939344;29;20040;-77
2024/01/22 07:11:07;;;;;;;508.07;466.37;;;9.00;99.90;;;;;;4953395;28;20039;-78
2024/01/22 07:13:32;;;;;;;1022.20;759.13;;;9.00;99.90;;;;;;4949512;28;20042;-77
2024/01/22 07:15:59;;;;;;;609.80;553.90;;;9.00;99.90;;;;;;4950871;28;20067;-79
2024/01/22 07:18:24;;;;;;;662.70;598.70;;;9.00;99.90;;;;;;4939698;29;20039;-78
2024/01/22 07:20:52;;;;;;;1256.83;778.57;;;8.90;99.90;;;;;;4950911;29;20292;-79
2024/01/22 07:23:19;;;;;;;716.73;646.27;;;8.90;99.90;;;;;;4925588;29;20512;-80
2024/01/22 07:25:44;;;;;;;764.87;684.30;;;8.90;99.90;;;;;;4934615;28;20293;-79
2024/01/22 07:28:11;;;;;;;757.00;668.90;;;8.80;99.90;;;;;;4925239;29;20307;-79
2024/01/22 07:30:37;;;;;;;603.13;545.63;;;8.80;99.90;;;;;;4944557;28;20047;-78
2024/01/22 07:33:03;;;;;;;530.60;483.43;;;8.70;99.90;;;;;;4950953;28;20322;-78
2024/01/22 07:35:29;;;;;;;677.87;615.80;;;8.70;99.90;;;;;;4951900;28;20362;-79
2024/01/22 07:37:55;;;;;;;478.00;436.98;;;8.60;99.90;;;;;;4948088;28;20062;-79
2024/01/22 07:40:21;;;;;;;608.85;551.13;;;8.60;99.90;;;;;;4942082;28;20103;-77
2024/01/22 07:42:48;;;;;;;822.65;720.88;;;8.60;99.90;;;;;;4942642;28;20529;-76
2024/01/22 07:45:14;;;;;;;1004.17;809.08;;;8.60;99.90;;;;;;4947202;28;20090;-77
2024/01/22 07:47:40;;;;;;;890.77;753.53;;;8.70;99.90;;;;;;4950112;28;20556;-76
2024/01/22 07:50:09;;;;;;;698.07;625.07;;;8.80;99.90;;;;;;4935921;28;20295;-77
2024/01/22 07:52:35;;;;;;;853.40;716.95;;;8.80;99.90;;;;;;4930480;29;20638;-75
2024/01/22 07:55:02;;;;;;;801.20;685.93;;;8.80;99.90;;;;;;4950838;28;20452;-77
2024/01/22 07:57:28;;;;;;;644.53;582.47;;;8.80;99.90;;;;;;4944241;28;20489;-77
2024/01/22 07:59:54;;;;;;;728.60;652.13;;;8.70;99.90;;;;;;4960230;28;20286;-77
2024/01/22 08:02:20;;;;;;;428.90;394.40;;;8.70;99.90;;;;;;4950379;28;20295;-77
2024/01/22 08:04:45;;;;;;;422.00;386.87;;;8.70;99.90;;;;;;4942252;28;20063;-77
2024/01/22 08:07:11;;;;;;;687.43;619.33;;;8.70;99.90;;;;;;4963262;28;20448;-77
2024/01/22 08:09:38;;;;;;;594.30;535.97;;;8.60;99.90;;;;;;4954184;28;20039;-78
2024/01/22 08:12:04;;;;;;;510.70;468.53;;;8.50;99.90;;;;;;4942487;28;20407;-77
2024/01/22 08:14:33;;;;;;;688.95;620.90;;;8.40;99.90;;;;;;4931539;29;20294;-77
2024/01/22 08:17:01;;;;;;;724.73;644.37;;;8.40;99.90;;;;;;4935134;29;20126;-77
2024/01/22 08:19:27;;;;;;;764.83;680.70;;;8.30;99.90;;;;;;4952744;28;20286;-77
2024/01/22 08:21:53;;;;;;;437.40;402.35;;;8.30;99.90;;;;;;4960869;28;20290;-77
2024/01/22 08:24:19;;;;;;;486.83;445.83;;;8.30;99.90;;;;;;4930780;29;20047;-77
2024/01/22 08:26:45;;;;;;;801.20;687.33;;;8.30;99.90;;;;;;4944290;28;20050;-77
2024/01/22 08:29:11;;;;;;;670.40;598.00;;;8.30;99.90;;;;;;4943662;29;20508;-78
2024/01/22 08:31:38;;;;;;;630.73;569.57;;;8.30;99.90;;;;;;4930976;29;20286;-78
2024/01/22 08:34:04;;;;;;;812.45;711.88;;;8.30;99.90;;;;;;4952808;28;20449;-78
2024/01/22 08:36:29;;;;;;;457.40;417.97;;;8.20;99.90;;;;;;4936366;29;20039;-78
2024/01/22 08:38:55;;;;;;;511.57;466.47;;;8.20;99.90;;;;;;4923873;29;20498;-78
2024/01/22 08:41:26;;;;;;;528.90;478.30;;;8.10;99.90;;;;;;4920999;29;20093;-78
2024/01/22 08:44:00;;;;;;;777.55;656.15;;;8.10;99.90;;;;;;4944803;29;20055;-78
2024/01/22 08:46:26;;;;;;;693.60;617.85;;;8.00;99.90;;;;;;4953420;28;20137;-78
2024/01/22 08:48:52;;;;;;;503.95;459.17;;;8.10;99.90;;;;;;4933766;29;20046;-79
2024/01/22 08:51:17;;;;;;;833.97;691.67;;;8.10;99.90;;;;;;4923782;29;20043;-79
2024/01/22 08:53:43;;;;;;;406.37;372.63;;;8.10;99.90;;;;;;4940611;28;20548;-79
2024/01/22 08:56:09;;;;;;;519.73;473.40;;;8.10;99.90;;;;;;4949649;28;20102;-78
2024/01/22 08:58:34;;;;;;;612.57;551.63;;;8.10;99.90;;;;;;4957265;28;20034;-79
2024/01/22 09:01:04;;;;;;;479.73;438.50;;;8.10;99.90;;;;;;4946063;28;20490;-78
2024/01/22 09:03:31;;;;;;;701.65;625.13;;;8.10;99.90;;;;;;4935560;28;20052;-79
2024/01/22 09:05:57;;;;;;;741.60;655.60;;;8.10;99.90;;;;;;4926645;29;20095;-79
2024/01/22 09:08:22;;;;;;;474.17;433.60;;;8.10;99.90;;;;;;4943286;28;20035;-76
2024/01/22 09:10:49;;;;;;;672.83;607.73;;;8.10;99.90;;;;;;4950953;28;20036;-76
2024/01/22 09:13:15;;;;;;;599.50;540.38;;;8.10;99.90;;;;;;4944065;28;20074;-77
2024/01/22 09:15:40;;;;;;;479.00;437.33;;;8.00;99.90;;;;;;4935202;28;20043;-77
2024/01/22 09:18:06;;;;;;;608.27;549.33;;;8.00;99.90;;;;;;4960880;28;20094;-77
2024/01/22 09:20:32;;;;;;;510.55;464.63;;;8.00;99.90;;;;;;4959238;28;20057;-77
2024/01/22 09:22:58;;;;;;;461.10;423.80;;;8.00;99.90;;;;;;4934529;29;20039;-77
2024/01/22 09:25:23;;;;;;;451.17;413.10;;;8.00;99.90;;;;;;4954221;28;20523;-76
2024/01/22 09:27:49;;;;;;;594.17;534.20;;;8.00;99.90;;;;;;4932306;29;20497;-77
2024/01/22 09:30:15;;;;;;;583.60;530.87;;;8.00;99.90;;;;;;4939601;28;20098;-77
2024/01/22 09:32:41;;;;;;;958.72;643.95;;;8.00;99.90;;;;;;4929911;29;20588;-77
2024/01/22 09:35:07;;;;;;;536.00;488.47;;;8.00;99.90;;;;;;4945390;28;20059;-77
2024/01/22 09:37:34;;;;;;;580.10;528.13;;;8.00;99.90;;;;;;4931507;28;20048;-77
2024/01/22 09:39:59;;;;;;;500.38;456.00;;;8.10;99.90;;;;;;4928387;29;20517;-76
2024/01/22 09:42:27;;;;;;;535.90;488.87;;;8.10;99.90;;;;;;4923484;29;20039;-76
2024/01/22 09:44:53;;;;;;;588.78;525.08;;;8.10;99.90;;;;;;4934781;29;20516;-76
2024/01/22 09:47:20;;;;;;;435.23;398.53;;;8.20;99.90;;;;;;4934604;28;20047;-77
2024/01/22 09:49:49;;;;;;;536.72;491.92;;;8.20;99.90;;;;;;4941299;29;20039;-77
2024/01/22 09:52:16;;;;;;;472.70;434.40;;;8.20;99.90;;;;;;4948111;29;20045;-77
2024/01/22 09:54:43;;;;;;;1026.50;741.60;;;8.20;99.90;;;;;;4932277;29;20050;-76
2024/01/22 09:57:16;;;;;;;574.45;520.78;;;8.30;99.90;;;;;;4950668;28;20114;-77
2024/01/22 09:59:43;;;;;;;529.80;484.88;;;8.30;99.90;;;;;;4947950;28;20039;-76
2024/01/22 10:02:12;;;;;;;517.95;477.42;;;8.30;99.90;;;;;;4947025;28;20043;-77
2024/01/22 10:04:39;;;;;;;414.85;382.77;;;8.30;99.90;;;;;;4941580;28;20535;-77
2024/01/22 10:07:06;;;;;;;397.98;366.85;;;8.20;99.90;;;;;;4956815;28;20514;-77
2024/01/22 10:09:32;;;;;;;541.05;490.02;;;8.20;99.90;;;;;;4937189;28;20046;-77
2024/01/22 10:11:58;;;;;;;591.23;533.53;;;8.10;99.90;;;;;;4934712;28;20421;-77
2024/01/22 10:14:37;;;;;;;426.13;385.87;;;8.10;99.90;;;;;;4951377;28;20043;-77
2024/01/22 10:17:17;;;;;;;392.15;362.55;;;8.10;99.90;;;;;;4929230;28;20050;-77
2024/01/22 10:19:44;;;;;;;542.53;492.70;;;8.20;99.90;;;;;;4953644;28;20036;-77
2024/01/22 10:22:11;;;;;;;401.20;369.25;;;8.20;99.90;;;;;;4931716;29;20048;-77
2024/01/22 10:24:39;;;;;;;478.77;439.05;;;8.30;99.90;;;;;;4943169;28;20043;-77
2024/01/22 10:27:15;;;;;;;648.17;580.95;;;8.30;99.90;;;;;;4955212;28;20051;-77
2024/01/22 10:29:45;;;;;;;499.25;457.63;;;8.40;99.90;;;;;;4950099;28;20043;-77
2024/01/22 10:32:11;;;;;;;439.33;405.55;;;8.40;99.90;;;;;;4939880;29;20071;-77
2024/01/22 10:34:52;;;;;;;546.07;495.63;;;8.50;99.90;;;;;;4942047;28;20504;-78
2024/01/22 10:37:18;;;;;;;515.42;471.70;;;8.50;99.90;;;;;;4947176;28;20442;-78
2024/01/22 10:39:45;;;;;;;513.70;470.77;;;8.50;99.90;;;;;;4930503;29;20046;-77
2024/01/22 10:42:16;;;;;;;609.78;558.05;;;8.60;99.90;;;;;;4937172;29;20065;-77
2024/01/22 10:44:46;;;;;;;434.63;399.88;;;8.60;99.90;;;;;;4931287;29;20048;-77
2024/01/22 10:47:13;;;;;;;568.80;519.63;;;8.60;99.90;;;;;;4930771;28;20051;-77
2024/01/22 10:49:44;;;;;;;491.05;451.15;;;8.60;99.90;;;;;;4949373;28;20268;-77
2024/01/22 10:52:10;;;;;;;457.10;420.63;;;8.60;99.90;;;;;;4936229;28;20421;-77
2024/01/22 10:54:37;;;;;;;790.73;570.13;;;8.60;99.90;;;;;;4956535;28;20134;-77
2024/01/22 10:57:20;;;;;;;492.40;444.97;;;8.60;99.90;;;;;;4938818;28;20337;-78
2024/01/22 10:59:49;;;;;;;572.80;524.00;;;8.60;99.90;;;;;;4936447;29;20330;-77
2024/01/22 11:02:22;;;;;;;508.38;467.77;;;8.60;99.90;;;;;;4945554;28;20286;-77
2024/01/22 11:04:52;;;;;;;642.55;579.50;;;8.70;99.90;;;;;;4952596;28;20138;-77
2024/01/22 11:07:24;;;;;;;432.60;399.50;;;8.70;99.90;;;;;;4923539;29;20039;-77
2024/01/22 11:09:52;;;;;;;641.90;564.22;;;8.70;99.90;;;;;;4927824;29;20118;-77
2024/01/22 11:12:21;;;;;;;479.07;437.53;;;8.70;99.90;;;;;;4945993;28;20101;-77
2024/01/22 11:14:47;;;;;;;523.73;483.03;;;8.70;99.90;;;;;;4954337;28;20283;-77
2024/01/22 11:17:14;;;;;;;466.98;430.13;;;8.70;99.90;;;;;;4942363;29;20294;-78
2024/01/22 11:19:40;;;;;;;665.50;599.73;;;8.70;99.90;;;;;;4952849;28;20050;-76
2024/01/22 11:22:21;;;;;;;662.33;587.27;;;8.70;99.90;;;;;;4945120;28;20367;-77
2024/01/22 11:25:10;;;;;;;576.95;526.63;;;8.70;99.90;;;;;;4948901;28;20509;-77
2024/01/22 11:27:40;;;;;;;663.85;597.25;;;8.70;99.90;;;;;;4947370;28;20050;-77
2024/01/22 11:30:21;;;;;;;1142.57;799.00;;;8.70;99.90;;;;;;4944755;28;20090;-78
2024/01/22 11:32:48;;;;;;;710.08;538.00;;;8.70;99.60;;;;;;4950027;28;20283;-78
2024/01/22 11:35:35;;;;;;;521.28;476.90;;;8.80;99.30;;;;;;4947343;28;20067;-75
2024/01/22 11:38:02;;;;;;;725.05;606.80;;;8.80;99.90;;;;;;4948075;28;20048;-77
2024/01/22 11:40:50;;;;;;;482.08;444.75;;;8.80;99.90;;;;;;4927791;29;20098;-77
2024/01/22 11:43:17;;;;;;;536.27;488.50;;;8.80;99.90;;;;;;4947053;28;20150;-76
2024/01/22 11:45:50;;;;;;;465.87;429.80;;;8.80;99.90;;;;;;4945494;28;20282;-76
2024/01/22 11:48:20;;;;;;;477.87;439.83;;;8.80;99.90;;;;;;4921360;29;20757;-76
2024/01/22 11:51:01;;;;;;;685.27;614.33;;;8.80;99.90;;;;;;4937024;28;20278;-77
2024/01/22 11:53:28;;;;;;;930.33;674.30;;;8.70;99.90;;;;;;4949869;28;20765;-76
2024/01/22 11:56:02;;;;;;;540.63;491.25;;;8.70;99.90;;;;;;4957738;28;20283;-76
2024/01/22 11:58:32;;;;;;;561.97;515.00;;;8.70;99.90;;;;;;4937396;28;20055;-78
2024/01/22 12:01:00;;;;;;;735.63;649.43;;;8.70;99.90;;;;;;4954702;28;20310;-77
2024/01/22 12:03:30;;;;;;;710.97;633.97;;;8.70;99.90;;;;;;4951850;28;20423;-78
2024/01/22 12:06:06;;;;;;;521.47;475.33;;;8.70;99.70;;;;;;4963720;28;20325;-77
2024/01/22 12:08:33;;;;;;;716.75;615.45;;;8.70;99.90;;;;;;4949392;28;20341;-79
2024/01/22 12:11:14;;;;;;;465.13;426.35;;;8.70;99.10;;;;;;4950622;28;20051;-77
2024/01/22 12:13:41;;;;;;;454.48;416.15;;;8.70;99.90;;;;;;4947483;28;20103;-77
2024/01/22 12:16:14;;;;;;;436.93;401.13;;;8.70;99.90;;;;;;4946388;28;20035;-76
2024/01/22 12:18:40;;;;;;;477.07;437.33;;;8.70;99.80;;;;;;4941795;28;20294;-76